createdAt,value
2022-09-30T00:01:42.057Z,32.87
2022-09-30T00:04:18.843Z,33.60
2022-09-30T00:06:45.501Z,28.83
2022-09-30T00:09:13.185Z,34.03
2022-09-30T00:11:40.240Z,34.00
2022-09-30T00:14:07.038Z,37.00
2022-09-30T00:16:34.310Z,36.40
2022-09-30T00:19:00.934Z,34.23
2022-09-30T00:21:28.798Z,32.73
2022-09-30T00:23:55.641Z,31.00
2022-09-30T00:26:23.004Z,30.30
2022-09-30T00:28:50.255Z,27.77
2022-09-30T00:31:17.194Z,31.97
2022-09-30T00:33:43.953Z,33.47
2022-09-30T00:36:10.476Z,32.10
2022-09-30T00:38:36.931Z,31.90
2022-09-30T00:41:03.501Z,30.33
2022-09-30T00:43:51.518Z,29.03
2022-09-30T00:46:21.160Z,28.07
2022-09-30T00:48:47.786Z,32.00
2022-09-30T00:51:14.210Z,30.73
2022-09-30T00:53:48.299Z,24.67
2022-09-30T00:56:17.422Z,26.33
2022-09-30T00:58:43.839Z,27.27
2022-09-30T01:01:10.496Z,32.80
2022-09-30T01:03:40.616Z,30.10
2022-09-30T01:06:07.144Z,30.10
2022-09-30T01:08:34.106Z,25.10
2022-09-30T01:11:04.553Z,26.90
2022-09-30T01:13:33.845Z,28.43
2022-09-30T01:16:06.922Z,27.13
2022-09-30T01:18:52.240Z,27.87
2022-09-30T01:21:18.730Z,25.67
2022-09-30T01:24:04.808Z,20.50
2022-09-30T01:26:50.191Z,28.37
2022-09-30T01:29:19.700Z,28.13
2022-09-30T01:32:04.727Z,25.23
2022-09-30T01:34:36.493Z,28.33
2022-09-30T01:37:12.236Z,27.50
2022-09-30T01:39:51.408Z,28.20
2022-09-30T01:42:21.180Z,25.50
2022-09-30T01:44:47.624Z,22.30
2022-09-30T01:47:27.228Z,23.20
2022-09-30T01:49:53.817Z,26.50
2022-09-30T01:52:24.526Z,23.80
2022-09-30T01:55:06.038Z,24.53
2022-09-30T01:57:32.497Z,20.23
2022-09-30T02:00:05.417Z,24.10
2022-09-30T02:02:32.334Z,27.97
2022-09-30T02:05:00.052Z,26.00
2022-09-30T02:07:43.025Z,24.27
2022-09-30T02:10:10.935Z,26.70
2022-09-30T02:12:38.459Z,26.97
2022-09-30T02:15:12.356Z,26.00
2022-09-30T02:17:43.241Z,26.93
2022-09-30T02:20:10.977Z,25.00
2022-09-30T02:22:44.927Z,22.87
2022-09-30T02:25:20.423Z,27.50
2022-09-30T02:27:49.203Z,26.53
2022-09-30T02:30:15.723Z,23.40
2022-09-30T02:33:00.693Z,25.37
2022-09-30T02:35:28.168Z,25.60
2022-09-30T02:37:56.432Z,29.60
2022-09-30T02:40:31.128Z,26.40
2022-09-30T02:42:57.604Z,27.63
2022-09-30T02:45:24.190Z,22.63
2022-09-30T02:48:12.858Z,25.07
2022-09-30T02:50:55.313Z,24.10
2022-09-30T02:53:30.059Z,25.87
2022-09-30T02:56:15.283Z,29.93
2022-09-30T02:58:41.865Z,28.80
2022-09-30T03:01:09.315Z,22.77
2022-09-30T03:03:38.214Z,28.43
2022-09-30T03:06:04.803Z,23.73
2022-09-30T03:08:31.259Z,23.80
2022-09-30T03:10:57.690Z,25.07
2022-09-30T03:13:24.136Z,26.13
2022-09-30T03:16:13.686Z,31.07
2022-09-30T03:18:43.726Z,25.10
2022-09-30T03:21:14.736Z,28.87
2022-09-30T03:23:59.487Z,25.67
2022-09-30T03:26:47.988Z,28.50
2022-09-30T03:29:30.055Z,27.37
2022-09-30T03:31:56.522Z,26.70
2022-09-30T03:34:27.755Z,24.33
2022-09-30T03:37:06.788Z,26.03
2022-09-30T03:39:47.050Z,23.37
2022-09-30T03:42:23.184Z,27.67
2022-09-30T03:45:05.319Z,29.00
2022-09-30T03:47:32.924Z,26.23
2022-09-30T03:50:00.623Z,25.83
2022-09-30T03:52:27.367Z,27.60
2022-09-30T03:54:54.502Z,24.60
2022-09-30T03:57:21.159Z,28.93
2022-09-30T03:59:47.874Z,29.97
2022-09-30T04:02:14.362Z,27.03
2022-09-30T04:04:41.972Z,25.47
2022-09-30T04:07:09.207Z,24.63
2022-09-30T04:09:36.052Z,27.73
2022-09-30T04:12:02.590Z,27.27
2022-09-30T04:14:29.028Z,29.50
2022-09-30T04:16:55.461Z,28.47
2022-09-30T04:19:22.029Z,27.70
2022-09-30T04:21:48.554Z,26.73
2022-09-30T04:24:15.073Z,31.50
2022-09-30T04:26:41.601Z,29.73
2022-09-30T04:29:08.031Z,26.90
2022-09-30T04:31:34.526Z,30.37
2022-09-30T04:34:01.114Z,29.60
2022-09-30T04:36:27.593Z,27.33
2022-09-30T04:38:54.182Z,28.53
2022-09-30T04:41:20.664Z,36.03
2022-09-30T04:43:47.884Z,35.50
2022-09-30T04:46:15.830Z,30.73
2022-09-30T04:48:45.962Z,30.77
2022-09-30T04:51:13.212Z,31.83
2022-09-30T04:53:40.063Z,30.60
2022-09-30T04:56:06.590Z,29.53
2022-09-30T04:58:36.893Z,31.07
2022-09-30T05:01:03.712Z,32.97
2022-09-30T05:03:30.194Z,31.77
2022-09-30T05:05:56.833Z,29.20
2022-09-30T05:08:23.480Z,33.57
2022-09-30T05:11:09.624Z,29.60
2022-09-30T05:13:39.686Z,27.80
2022-09-30T05:16:07.194Z,33.17
2022-09-30T05:18:36.744Z,30.13
2022-09-30T05:21:03.536Z,29.60
2022-09-30T05:23:30.659Z,26.53
2022-09-30T05:25:57.196Z,27.00
2022-09-30T05:28:23.842Z,28.40
2022-09-30T05:30:51.188Z,31.40
2022-09-30T05:33:17.651Z,30.23
2022-09-30T05:35:44.163Z,27.97
2022-09-30T05:38:10.662Z,29.43
2022-09-30T05:40:37.669Z,27.27
2022-09-30T05:43:04.186Z,30.80
2022-09-30T05:45:30.665Z,28.10
2022-09-30T05:47:57.267Z,30.67
2022-09-30T05:50:24.182Z,31.67
2022-09-30T05:52:50.917Z,28.93
2022-09-30T05:55:17.931Z,28.97
2022-09-30T05:57:46.283Z,30.90
2022-09-30T06:00:12.863Z,33.10
2022-09-30T06:02:39.473Z,27.50
2022-09-30T06:05:07.147Z,30.03
2022-09-30T06:07:34.090Z,31.63
2022-09-30T06:10:00.766Z,27.83
2022-09-30T06:12:28.913Z,27.87
2022-09-30T06:14:55.519Z,30.87
2022-09-30T06:17:22.432Z,34.37
2022-09-30T06:19:49.990Z,38.23
2022-09-30T06:22:16.852Z,33.10
2022-09-30T06:24:43.324Z,32.67
2022-09-30T06:27:09.764Z,32.53
2022-09-30T06:29:36.201Z,36.53
2022-09-30T06:32:02.790Z,32.10
2022-09-30T06:34:29.352Z,34.00
2022-09-30T06:36:55.806Z,35.97
2022-09-30T06:39:28.558Z,34.77
2022-09-30T06:41:56.488Z,37.87
2022-09-30T06:44:22.929Z,32.50
2022-09-30T06:46:53.999Z,33.97
2022-09-30T06:49:21.220Z,31.80
2022-09-30T06:51:47.754Z,35.63
2022-09-30T06:54:14.185Z,31.67
2022-09-30T06:56:40.777Z,30.97
2022-09-30T06:59:07.224Z,30.57
2022-09-30T07:01:33.689Z,30.00
2022-09-30T07:04:00.998Z,33.70
2022-09-30T07:06:27.538Z,34.90
2022-09-30T07:08:54.805Z,31.47
2022-09-30T07:11:21.279Z,32.50
2022-09-30T07:13:47.752Z,29.17
2022-09-30T07:16:14.466Z,30.37
2022-09-30T07:18:45.184Z,29.07
2022-09-30T07:21:13.719Z,29.77
2022-09-30T07:23:45.875Z,29.40
2022-09-30T07:26:12.308Z,28.43
2022-09-30T07:28:39.624Z,29.50
2022-09-30T07:31:31.923Z,27.03
2022-09-30T07:33:58.618Z,28.47
2022-09-30T07:36:32.661Z,24.47
2022-09-30T07:39:06.325Z,24.00
2022-09-30T07:41:34.664Z,21.23
2022-09-30T07:44:01.585Z,23.87
2022-09-30T07:46:29.825Z,24.17
2022-09-30T07:48:57.939Z,22.07
2022-09-30T07:51:25.618Z,23.83
2022-09-30T07:53:53.333Z,21.80
2022-09-30T07:56:20.570Z,22.30
2022-09-30T07:58:47.072Z,21.10
2022-09-30T08:01:13.621Z,21.53
2022-09-30T08:03:40.691Z,24.87
2022-09-30T08:06:07.206Z,21.37
2022-09-30T08:08:33.678Z,21.87
2022-09-30T08:11:00.711Z,27.13
2022-09-30T08:13:27.205Z,26.40
2022-09-30T08:15:53.696Z,24.17
2022-09-30T08:18:20.145Z,19.70
2022-09-30T08:20:46.763Z,26.73
2022-09-30T08:23:13.250Z,22.00
2022-09-30T08:25:39.679Z,22.03
2022-09-30T08:28:06.168Z,20.33
2022-09-30T08:30:35.198Z,20.27
2022-09-30T08:33:01.696Z,19.37
2022-09-30T08:35:28.247Z,20.93
2022-09-30T08:37:54.825Z,23.17
2022-09-30T08:40:25.225Z,19.83
2022-09-30T08:42:57.639Z,18.07
2022-09-30T08:45:42.618Z,21.83
2022-09-30T08:48:28.913Z,21.60
2022-09-30T08:51:04.896Z,20.83
2022-09-30T08:53:33.039Z,20.77
2022-09-30T08:56:02.676Z,21.70
2022-09-30T08:58:32.455Z,20.90
2022-09-30T09:01:04.963Z,18.30
2022-09-30T09:03:31.558Z,20.87
2022-09-30T09:06:04.325Z,17.63
2022-09-30T09:08:49.668Z,18.23
2022-09-30T09:11:28.743Z,18.07
2022-09-30T09:14:01.122Z,17.90
2022-09-30T09:16:30.259Z,16.83
2022-09-30T09:19:00.132Z,13.07
2022-09-30T09:21:45.543Z,15.97
2022-09-30T09:24:19.011Z,12.47
2022-09-30T09:26:45.554Z,13.17
2022-09-30T09:29:47.606Z,13.33
2022-09-30T09:32:14.913Z,11.07
2022-09-30T09:34:44.325Z,11.23
2022-09-30T09:37:55.839Z,12.87
2022-09-30T09:40:25.483Z,14.20
2022-09-30T09:42:51.913Z,14.67
2022-09-30T09:45:27.683Z,12.13
2022-09-30T09:47:54.293Z,11.33
2022-09-30T09:50:42.221Z,12.50
2022-09-30T09:53:17.878Z,13.40
2022-09-30T09:55:45.183Z,12.67
2022-09-30T09:58:15.023Z,11.63
2022-09-30T10:00:47.548Z,13.37
2022-09-30T10:03:34.293Z,13.10
2022-09-30T10:06:03.940Z,16.00
2022-09-30T10:08:31.489Z,14.73
2022-09-30T10:11:01.884Z,14.93
2022-09-30T10:13:30.783Z,15.33
2022-09-30T10:15:58.010Z,12.50
2022-09-30T10:18:25.815Z,11.43
2022-09-30T10:20:53.861Z,12.17
2022-09-30T10:23:21.755Z,10.87
2022-09-30T10:25:55.118Z,10.90
2022-09-30T10:28:25.811Z,9.77
2022-09-30T10:30:59.159Z,10.27
2022-09-30T10:33:30.110Z,9.30
2022-09-30T10:35:57.846Z,10.17
2022-09-30T10:38:25.141Z,11.77
2022-09-30T10:40:51.740Z,10.97
2022-09-30T10:43:31.711Z,8.23
2022-09-30T10:46:24.524Z,8.17
2022-09-30T10:48:49.702Z,7.47
2022-09-30T10:51:24.129Z,8.93
2022-09-30T10:53:50.696Z,8.30
2022-09-30T10:56:33.883Z,9.70
2022-09-30T10:59:00.411Z,10.13
2022-09-30T11:01:33.791Z,11.33
2022-09-30T11:04:03.304Z,10.80
2022-09-30T11:06:31.597Z,14.40
2022-09-30T11:09:00.134Z,11.47
2022-09-30T11:11:38.177Z,16.90
2022-09-30T11:14:04.621Z,11.90
2022-09-30T11:16:37.371Z,12.83
2022-09-30T11:19:07.899Z,11.87
2022-09-30T11:21:40.575Z,12.53
2022-09-30T11:24:26.220Z,13.75
2022-09-30T11:27:11.641Z,16.77
2022-09-30T11:29:52.776Z,16.93
2022-09-30T11:32:31.560Z,17.57
2022-09-30T11:35:06.962Z,13.07
2022-09-30T11:37:36.595Z,14.90
2022-09-30T11:40:12.415Z,18.60
2022-09-30T11:42:45.524Z,15.20
2022-09-30T11:45:24.542Z,16.17
2022-09-30T11:47:54.489Z,16.27
2022-09-30T11:50:35.635Z,19.67
2022-09-30T11:53:02.069Z,21.80
2022-09-30T11:55:29.046Z,16.90
2022-09-30T11:58:28.801Z,16.60
2022-09-30T12:00:56.428Z,18.33
2022-09-30T12:03:25.830Z,14.33
2022-09-30T12:05:56.952Z,16.67
2022-09-30T12:08:30.715Z,17.47
2022-09-30T12:11:01.880Z,13.90
2022-09-30T12:13:30.183Z,13.48
2022-09-30T12:15:57.145Z,15.23
2022-09-30T12:18:46.508Z,19.10
2022-09-30T12:21:12.995Z,12.83
2022-09-30T12:23:39.998Z,12.55
2022-09-30T12:26:06.622Z,14.88
2022-09-30T12:29:03.657Z,13.23
2022-09-30T12:31:30.769Z,12.80
2022-09-30T12:34:03.154Z,14.27
2022-09-30T12:36:40.126Z,19.03
2022-09-30T12:39:25.509Z,15.83
2022-09-30T12:42:03.910Z,17.50
2022-09-30T12:44:33.189Z,15.27
2022-09-30T12:46:59.657Z,15.83
2022-09-30T12:49:26.584Z,16.50
2022-09-30T12:51:54.493Z,13.68
2022-09-30T12:54:41.193Z,15.10
2022-09-30T12:57:09.344Z,16.63
2022-09-30T12:59:36.694Z,15.53
2022-09-30T13:02:04.430Z,16.57
2022-09-30T13:04:34.611Z,17.37
2022-09-30T13:07:01.106Z,14.98
2022-09-30T13:09:31.256Z,14.85
2022-09-30T13:11:57.879Z,15.05
2022-09-30T13:14:36.330Z,16.55
2022-09-30T13:17:02.843Z,12.38
2022-09-30T13:19:36.339Z,13.38
2022-09-30T13:22:18.282Z,15.98
2022-09-30T13:24:57.454Z,16.60
2022-09-30T13:27:36.035Z,16.98
2022-09-30T13:30:03.425Z,14.02
2022-09-30T13:32:33.731Z,16.95
2022-09-30T13:35:00.236Z,17.58
2022-09-30T13:37:30.647Z,16.92
2022-09-30T13:39:57.217Z,13.25
2022-09-30T13:42:26.961Z,16.17
2022-09-30T13:44:57.381Z,18.05
2022-09-30T13:47:40.531Z,19.02
2022-09-30T13:50:13.024Z,23.25
2022-09-30T13:52:39.908Z,18.42
2022-09-30T13:55:12.820Z,19.45
2022-09-30T13:57:49.203Z,24.85
2022-09-30T14:00:18.816Z,23.30
2022-09-30T14:02:54.737Z,24.98
2022-09-30T14:05:27.347Z,23.20
2022-09-30T14:08:10.743Z,24.20
2022-09-30T14:10:40.995Z,21.65
2022-09-30T14:13:07.553Z,19.97
2022-09-30T14:15:47.210Z,23.52
2022-09-30T14:18:23.275Z,24.00
2022-09-30T14:20:53.066Z,24.30
2022-09-30T14:23:20.372Z,24.25
2022-09-30T14:25:53.669Z,24.63
2022-09-30T14:28:25.074Z,27.30
2022-09-30T14:31:10.473Z,21.10
2022-09-30T14:33:36.999Z,24.55
2022-09-30T14:36:03.980Z,26.45
2022-09-30T14:38:30.636Z,24.10
2022-09-30T14:40:58.521Z,23.83
2022-09-30T14:43:26.937Z,26.17
2022-09-30T14:45:55.264Z,22.10
2022-09-30T14:48:23.276Z,25.63
2022-09-30T14:50:55.618Z,26.63
2022-09-30T14:53:32.145Z,25.98
2022-09-30T14:55:58.800Z,27.48
2022-09-30T14:58:30.605Z,30.38
2022-09-30T15:01:06.482Z,28.20
2022-09-30T15:03:34.429Z,26.53
2022-09-30T15:06:01.007Z,35.10
2022-09-30T15:08:27.472Z,39.23
2022-09-30T15:10:54.665Z,50.97
2022-09-30T15:13:22.090Z,44.40
2022-09-30T15:15:48.603Z,38.63
2022-09-30T15:18:28.498Z,33.53
2022-09-30T15:20:55.999Z,34.60
2022-09-30T15:23:29.813Z,40.83
2022-09-30T15:25:56.597Z,41.53
2022-09-30T15:28:23.171Z,39.83
2022-09-30T15:30:52.025Z,33.13
2022-09-30T15:33:19.199Z,32.00
2022-09-30T15:35:45.716Z,40.83
2022-09-30T15:38:23.006Z,48.90
2022-09-30T15:40:57.208Z,39.00
2022-09-30T15:43:33.012Z,40.87
2022-09-30T15:46:01.241Z,61.33
2022-09-30T15:48:27.894Z,59.53
2022-09-30T15:50:55.921Z,57.70
2022-09-30T15:53:25.720Z,48.40
2022-09-30T15:55:58.842Z,41.10
2022-09-30T15:58:37.213Z,36.30
2022-09-30T16:01:17.611Z,35.80
2022-09-30T16:03:54.913Z,48.45
2022-09-30T16:06:25.504Z,31.38
2022-09-30T16:08:54.094Z,37.42
2022-09-30T16:11:25.179Z,33.20
2022-09-30T16:13:51.663Z,38.50
2022-09-30T16:16:22.130Z,34.25
2022-09-30T16:18:48.814Z,36.55
2022-09-30T16:21:30.877Z,36.50
2022-09-30T16:23:57.367Z,39.95
2022-09-30T16:26:28.798Z,50.05
2022-09-30T16:29:01.991Z,57.78
2022-09-30T16:31:30.128Z,47.20
2022-09-30T16:33:57.387Z,47.20
2022-09-30T16:36:23.985Z,44.30
2022-09-30T16:38:50.562Z,44.10
2022-09-30T16:41:17.049Z,43.42
2022-09-30T16:43:44.031Z,44.80
2022-09-30T16:46:10.631Z,42.03
2022-09-30T16:48:38.447Z,48.92
2022-09-30T16:51:05.002Z,43.70
2022-09-30T16:53:31.453Z,40.22
2022-09-30T16:55:57.917Z,40.50
2022-09-30T16:58:24.363Z,42.83
2022-09-30T17:00:51.838Z,45.30
2022-09-30T17:03:18.505Z,47.53
2022-09-30T17:05:45.469Z,48.03
2022-09-30T17:08:13.998Z,51.60
2022-09-30T17:10:40.621Z,51.40
2022-09-30T17:13:07.155Z,55.45
2022-09-30T17:15:33.640Z,51.25
2022-09-30T17:18:00.143Z,50.90
2022-09-30T17:20:26.685Z,52.38
2022-09-30T17:22:53.190Z,53.45
2022-09-30T17:25:19.770Z,50.50
2022-09-30T17:27:50.145Z,51.70
2022-09-30T17:30:16.994Z,50.05
2022-09-30T17:32:45.036Z,49.13
2022-09-30T17:35:11.949Z,51.65
2022-09-30T17:37:42.515Z,54.07
2022-09-30T17:40:30.688Z,53.50
2022-09-30T17:43:12.481Z,48.92
2022-09-30T17:45:40.282Z,59.47
2022-09-30T17:48:07.902Z,65.55
2022-09-30T17:50:37.928Z,63.38
2022-09-30T17:53:04.561Z,55.75
2022-09-30T17:55:31.091Z,55.67
2022-09-30T17:57:57.574Z,53.28
2022-09-30T18:00:24.081Z,51.05
2022-09-30T18:02:50.550Z,58.67
2022-09-30T18:05:17.085Z,62.17
2022-09-30T18:07:43.518Z,64.45
2022-09-30T18:10:10.129Z,55.97
2022-09-30T18:12:36.675Z,54.33
2022-09-30T18:15:03.310Z,56.55
2022-09-30T18:17:29.817Z,60.60
2022-09-30T18:19:56.361Z,63.10
2022-09-30T18:22:22.805Z,59.58
2022-09-30T18:25:07.925Z,69.90
2022-09-30T18:27:34.388Z,63.80
2022-09-30T18:30:04.457Z,71.28
2022-09-30T18:32:30.992Z,65.82
2022-09-30T18:34:57.546Z,68.35
2022-09-30T18:37:24.406Z,59.80
2022-09-30T18:39:51.090Z,64.38
2022-09-30T18:42:20.775Z,60.25
2022-09-30T18:44:47.803Z,53.63
2022-09-30T18:47:17.575Z,51.53
2022-09-30T18:49:44.345Z,54.38
2022-09-30T18:52:10.807Z,60.20
2022-09-30T18:54:37.345Z,64.07
2022-09-30T18:57:03.905Z,70.20
2022-09-30T18:59:30.556Z,67.70
2022-09-30T19:01:58.781Z,59.63
2022-09-30T19:04:25.334Z,59.42
2022-09-30T19:06:51.785Z,52.90
2022-09-30T19:09:18.338Z,54.35
2022-09-30T19:11:46.288Z,49.65
2022-09-30T19:14:13.420Z,51.53
2022-09-30T19:16:40.096Z,57.65
2022-09-30T19:19:08.244Z,56.08
2022-09-30T19:21:36.373Z,55.57
2022-09-30T19:24:04.411Z,51.78
2022-09-30T19:26:31.439Z,51.78
2022-09-30T19:28:57.993Z,56.63
2022-09-30T19:31:25.394Z,54.65
2022-09-30T19:33:56.706Z,54.40
2022-09-30T19:36:23.987Z,53.75
2022-09-30T19:38:51.676Z,54.75
2022-09-30T19:41:20.321Z,59.40
2022-09-30T19:43:50.259Z,60.90
2022-09-30T19:46:16.869Z,57.90
2022-09-30T19:48:43.451Z,65.40
2022-09-30T19:51:13.777Z,69.32
2022-09-30T19:53:42.121Z,66.82
2022-09-30T19:56:13.110Z,62.65
2022-09-30T19:58:43.463Z,63.05
2022-09-30T20:01:10.057Z,63.13
2022-09-30T20:03:37.535Z,66.88
2022-09-30T20:06:05.850Z,73.72
2022-09-30T20:08:33.102Z,70.28
2022-09-30T20:11:03.256Z,63.35
2022-09-30T20:13:29.925Z,61.67
2022-09-30T20:15:58.390Z,62.90
2022-09-30T20:18:25.001Z,62.80
2022-09-30T20:20:51.534Z,62.70
2022-09-30T20:23:19.410Z,65.35
2022-09-30T20:25:46.162Z,65.25
2022-09-30T20:28:12.760Z,52.38
2022-09-30T20:30:39.996Z,59.17
2022-09-30T20:33:06.528Z,58.63
2022-09-30T20:35:36.758Z,60.17
2022-09-30T20:38:03.301Z,57.42
2022-09-30T20:40:29.754Z,58.90
2022-09-30T20:43:01.457Z,61.83
2022-09-30T20:45:28.374Z,59.67
2022-09-30T20:47:55.389Z,63.10
2022-09-30T20:50:35.158Z,64.78
2022-09-30T20:53:02.583Z,61.63
2022-09-30T20:55:29.058Z,59.35
2022-09-30T20:57:55.591Z,62.65
2022-09-30T21:00:22.721Z,59.47
2022-09-30T21:02:49.534Z,65.22
2022-09-30T21:05:16.075Z,59.42
2022-09-30T21:07:42.552Z,65.13
2022-09-30T21:10:09.264Z,67.03
2022-09-30T21:12:35.980Z,65.88
2022-09-30T21:15:02.428Z,67.25
2022-09-30T21:17:28.844Z,67.75
2022-09-30T21:19:55.302Z,69.65
2022-09-30T21:22:21.762Z,63.85
2022-09-30T21:24:48.363Z,66.18
2022-09-30T21:27:14.818Z,70.70
2022-09-30T21:29:41.325Z,62.00
2022-09-30T21:32:08.013Z,62.60
2022-09-30T21:34:34.500Z,64.70
2022-09-30T21:37:01.962Z,60.28
2022-09-30T21:39:28.553Z,62.30
2022-09-30T21:41:55.558Z,64.40
2022-09-30T21:44:22.281Z,62.38
2022-09-30T21:46:50.420Z,55.55
2022-09-30T21:49:18.207Z,57.95
2022-09-30T21:51:44.859Z,56.83
2022-09-30T21:54:13.462Z,58.20
2022-09-30T21:56:40.615Z,58.47
2022-09-30T21:59:07.178Z,57.83
2022-09-30T22:01:33.874Z,54.25
2022-09-30T22:04:00.589Z,51.00
2022-09-30T22:06:27.035Z,51.75
2022-09-30T22:08:53.477Z,49.30
2022-09-30T22:11:24.628Z,51.95
2022-09-30T22:13:55.521Z,51.25
2022-09-30T22:16:23.490Z,51.13
2022-09-30T22:18:54.082Z,52.17
2022-09-30T22:21:20.568Z,51.70
2022-09-30T22:23:47.717Z,52.05
2022-09-30T22:26:17.974Z,54.45
2022-09-30T22:28:44.916Z,54.33
2022-09-30T22:31:11.341Z,49.67
2022-09-30T22:33:56.636Z,49.95
2022-09-30T22:36:41.942Z,46.08
2022-09-30T22:39:08.381Z,45.25
2022-09-30T22:41:35.106Z,49.57
2022-09-30T22:44:02.046Z,45.40
2022-09-30T22:46:29.956Z,45.88
2022-09-30T22:48:59.445Z,44.08
2022-09-30T22:51:26.345Z,49.10
2022-09-30T22:53:52.780Z,49.20
2022-09-30T22:56:19.524Z,46.13
2022-09-30T22:58:47.179Z,46.05
2022-09-30T23:01:13.714Z,53.15
2022-09-30T23:03:40.233Z,44.25
2022-09-30T23:06:06.711Z,54.28
2022-09-30T23:08:33.525Z,52.58
2022-09-30T23:11:02.929Z,55.30
2022-09-30T23:13:30.648Z,49.42
2022-09-30T23:15:57.588Z,58.38
2022-09-30T23:18:24.495Z,55.78
2022-09-30T23:20:57.430Z,55.83
2022-09-30T23:23:24.013Z,56.20
2022-09-30T23:26:04.215Z,52.33
2022-09-30T23:28:30.669Z,59.83
2022-09-30T23:31:00.471Z,59.40
2022-09-30T23:33:27.043Z,59.00
2022-09-30T23:35:55.515Z,68.82
2022-09-30T23:38:24.863Z,59.17
2022-09-30T23:40:51.309Z,65.53
2022-09-30T23:43:17.797Z,62.17
2022-09-30T23:45:44.288Z,67.05
2022-09-30T23:48:10.799Z,60.67
2022-09-30T23:50:37.263Z,64.53
2022-09-30T23:53:03.676Z,66.88
2022-09-30T23:55:30.135Z,66.60
2022-09-30T23:57:59.580Z,65.85
